Strona główna
METAR-TAF:

METAR-TAF

Lotnisko :

Port lotniczy Frankfurt-Hahn

Hahn, Niemcy

Szerokość geograficzna: 49-57N, Długość geograficzna: 007-16E, wysokość: 491 m

Aktualna obserwacja pogody

Raport powstał 39 minut temu, godzina 11:20 UTC
Wiatr 6 kt od południowo-południowy wschód
Temperatura 9°C
Wilgotność 100%
Ciśnienie 1006 hPa
Widzialność 10 km lub więcej
Rozproszone chmury na wysokości 4600 ft

METAR: EDFH 161120Z 15006KT 9999 SCT046 09/09 Q1006

czas: 12:59 (11:59 UTC)

Prognoza

Raport powstał 59 minut temu, godzina 11:00 UTC
Prognoza ważna od 16 godzina 12 UTC do 17 godzina 12 UTC
Wiatr 9 kt od południowo-południowy wschód
Widzialność 10 km lub więcej
Rozproszone chmury na wysokości 4000 ft
Stopniowe zmiany
od 16 godzina 18 UTC do 16 godzina 20 UTC
Wiatr 14 kt od południowo-południowy wschód
Przejściowo
od 16 godzina 22 UTC do 17 godzina 12 UTC
Wiatr 15 kt od południowo-południowy wschód w porywach dochodzący do 30 kt

TAF: EDFH 161100Z 1612/1712 16009KT 9999 SCT040 BECMG 1618/1620 15014KT TEMPO 1622/1712 16015G30KT

Obserwacja i prognoza pogody dla ponad 4000 lotnisk (raport METAR i TAF).

Dostępne stacje oznaczono żółtymi i czerwonymi punktami na mapie.

Najedź kursorem aby zobaczyć nazwę stacji.

Kliknij aby zobaczyć obserwacje i prognozy pogody.

Aby zmienić mapę: kliknij na zielony przycisk z czarnym krzyżykiem, aby powiększyć; na zielony przycisk z myślnikiem, aby pomniejszyć; na zielone strzałki, aby przejść do map sąsiednich.


METAR-TAF: